Time;durP1;ratioP1;P1;durP2;ratioP2;P2;SDS_P1;SDS_P2;PMS_P1;PMS_P2;Temp;Humidity;BMP_temperature;BMP_pressure;BME280_temperature;BME280_humidity;BME280_pressure;Samples;Min_cycle;Max_cycle;Signal;HPM_P1;HPM_P2
2021/09/30 00:00:21;;;;;;;40.80;18.80;;;;;;;12.09;86.13;100870.27;113508;1200;22865;-77
2021/09/30 00:03:11;;;;;;;38.20;18.30;;;;;;;12.06;86.07;100876.02;113519;1200;24108;-77
2021/09/30 00:05:43;;;;;;;36.00;18.20;;;;;;;12.04;86.08;100882.31;113596;1200;22440;-79
2021/09/30 00:08:12;;;;;;;37.10;18.70;;;;;;;12.01;85.99;100884.27;113835;1199;25111;-78
2021/09/30 00:10:47;;;;;;;39.50;18.90;;;;;;;11.99;85.99;100880.23;113527;1200;22463;-78
2021/09/30 00:13:31;;;;;;;40.70;18.80;;;;;;;11.97;85.98;100883.59;113529;1177;22452;-78
2021/09/30 00:16:19;;;;;;;34.80;17.00;;;;;;;11.95;85.99;100894.81;113538;1199;22444;-77
2021/09/30 00:32:54;;;;;;;34.40;15.40;;;;;;;11.77;86.08;100930.54;113493;1200;25376;-77
2021/09/30 00:35:36;;;;;;;35.70;17.20;;;;;;;11.75;86.13;100932.93;113645;1200;23188;-77
2021/09/30 00:41:06;;;;;;;33.70;15.30;;;;;;;11.72;86.08;100931.79;113506;1200;22418;-77
2021/09/30 00:46:26;;;;;;;30.40;14.40;;;;;;;11.67;85.98;100922.11;113379;1200;22422;-77
2021/09/30 00:49:05;;;;;;;29.80;13.70;;;;;;;11.64;85.81;100927.79;113389;1200;22518;-78
2021/09/30 00:51:42;;;;;;;26.00;12.60;;;;;;;11.60;85.86;100925.45;113469;1200;22437;-78
2021/09/30 02:20:28;;;;;;;12.20;3.40;;;;;;;11.45;86.11;101022.56;113252;1201;22459;-77
2021/09/30 02:23:26;;;;;;;7.60;2.20;;;;;;;11.46;86.09;101025.09;113213;1201;22538;-77
2021/09/30 02:29:09;;;;;;;10.40;2.00;;;;;;;11.46;85.93;101033.53;113177;1201;22532;-77
2021/09/30 02:58:12;;;;;;;2.70;0.70;;;;;;;11.44;84.32;101058.83;112638;1207;22442;-77
2021/09/30 03:00:43;;;;;;;4.30;0.90;;;;;;;11.42;84.46;101058.89;112702;1206;23327;-77
2021/09/30 03:03:13;;;;;;;4.60;0.70;;;;;;;11.42;84.40;101057.61;112696;1207;22467;-77
2021/09/30 03:05:41;;;;;;;5.10;0.90;;;;;;;11.41;84.42;101065.48;112720;1206;22451;-77
2021/09/30 03:08:12;;;;;;;4.50;0.60;;;;;;;11.40;84.62;101072.70;112554;1207;22654;-77
2021/09/30 03:10:41;;;;;;;4.70;0.80;;;;;;;11.38;84.38;101076.45;112602;1207;22630;-77
2021/09/30 03:13:10;;;;;;;2.60;0.60;;;;;;;11.37;84.48;101074.10;112689;1207;22780;-77
2021/09/30 03:15:42;;;;;;;4.90;0.60;;;;;;;11.36;84.13;101074.78;112796;1204;23796;-77
2021/09/30 03:18:26;;;;;;;3.40;0.70;;;;;;;11.35;84.14;101076.02;112857;1204;22456;-77
2021/09/30 03:22:03;;;;;;;4.50;0.70;;;;;;;11.34;84.00;101088.52;112911;1204;24173;-78
2021/09/30 03:23:53;;;;;;;1.60;0.50;;;;;;;11.32;84.01;101089.97;112973;1204;22444;-77
2021/09/30 03:26:25;;;;;;;2.80;0.50;;;;;;;11.31;83.96;101088.05;112941;1204;22497;-77
2021/09/30 03:28:54;;;;;;;5.30;0.60;;;;;;;11.29;83.91;101097.14;113008;1200;25110;-77
2021/09/30 03:31:24;;;;;;;7.40;0.60;;;;;;;11.28;83.44;101094.00;113477;1200;25028;-77
2021/09/30 03:33:53;;;;;;;3.70;0.50;;;;;;;11.26;83.26;101089.61;113628;1184;24055;-77
2021/09/30 03:36:24;;;;;;;3.20;0.50;;;;;;;11.25;83.38;101100.05;113443;1200;22510;-76
2021/09/30 03:38:52;;;;;;;4.00;0.60;;;;;;;11.22;83.48;101110.29;113484;1199;24119;-77
2021/09/30 03:41:20;;;;;;;2.80;0.50;;;;;;;11.20;83.34;101112.71;113765;1186;24204;-77
2021/09/30 03:43:49;;;;;;;1.90;0.40;;;;;;;11.17;83.15;101106.42;113956;1200;25141;-78
2021/09/30 03:46:17;;;;;;;1.60;0.20;;;;;;;11.17;83.30;101112.17;113584;1186;25027;-78
2021/09/30 03:48:52;;;;;;;4.40;0.60;;;;;;;11.15;83.33;101117.91;113345;1198;22434;-77
2021/09/30 03:51:30;;;;;;;3.70;0.60;;;;;;;11.15;83.34;101118.35;113518;1200;24088;-78
2021/09/30 03:54:12;;;;;;;1.90;0.30;;;;;;;11.13;83.30;101121.35;113373;1200;23316;-77
2021/09/30 03:56:51;;;;;;;1.50;0.30;;;;;;;11.11;83.46;101122.90;113549;1200;22570;-76
2021/09/30 03:59:19;;;;;;;2.90;0.40;;;;;;;11.08;83.40;101130.52;113360;1199;24112;-77
2021/09/30 04:01:56;;;;;;;2.00;0.50;;;;;;;11.07;83.48;101136.48;113417;1199;22496;-78
2021/09/30 04:04:27;;;;;;;4.20;0.60;;;;;;;11.06;83.48;101140.58;113437;1200;22439;-77
2021/09/30 04:06:56;;;;;;;3.10;0.40;;;;;;;11.05;83.38;101142.48;113522;1200;25101;-77
2021/09/30 04:09:28;;;;;;;5.50;0.50;;;;;;;11.03;83.17;101145.41;113667;1200;24061;-77
2021/09/30 04:11:57;;;;;;;2.10;0.50;;;;;;;11.02;83.22;101146.09;113537;1200;22490;-77
2021/09/30 04:14:26;;;;;;;4.20;0.40;;;;;;;11.01;83.18;101146.59;113628;1200;25277;-79
2021/09/30 04:16:55;;;;;;;6.10;0.60;;;;;;;11.01;83.12;101150.99;113805;1200;22473;-78
2021/09/30 04:19:23;;;;;;;1.40;0.50;;;;;;;11.01;83.17;101151.89;113702;1193;24110;-77
2021/09/30 04:21:54;;;;;;;2.10;0.30;;;;;;;11.00;83.02;101156.09;113561;1193;22418;-78
2021/09/30 04:24:22;;;;;;;2.20;0.40;;;;;;;10.99;82.95;101157.22;113597;1200;22449;-78
2021/09/30 04:26:52;;;;;;;2.10;0.40;;;;;;;10.98;82.90;101155.42;113591;1200;22445;-77
2021/09/30 04:29:21;;;;;;;1.50;0.30;;;;;;;10.97;82.86;101160.98;113602;1200;25144;-77
2021/09/30 04:31:51;;;;;;;2.80;0.40;;;;;;;10.97;82.74;101162.59;113639;1200;24143;-76
2021/09/30 04:34:22;;;;;;;2.60;0.20;;;;;;;10.96;82.75;101166.13;113460;1200;22412;-79
2021/09/30 04:36:52;;;;;;;3.90;0.30;;;;;;;10.95;82.73;101168.39;114173;1200;25129;-80
2021/09/30 04:39:20;;;;;;;2.70;0.30;;;;;;;10.95;82.73;101171.67;114123;1200;22428;-80
2021/09/30 04:41:48;;;;;;;3.00;0.20;;;;;;;10.95;82.69;101171.67;114625;1187;22503;-80
2021/09/30 04:44:16;;;;;;;1.90;0.30;;;;;;;10.94;82.22;101171.89;114609;1200;22513;-80
2021/09/30 04:46:44;;;;;;;4.40;0.30;;;;;;;10.93;82.17;101170.89;114798;1200;22567;-80
2021/09/30 04:49:12;;;;;;;4.70;0.40;;;;;;;10.93;81.95;101173.93;114246;1200;23177;-80
2021/09/30 04:51:42;;;;;;;1.30;0.20;;;;;;;10.91;81.99;101178.38;113868;1193;22548;-79
2021/09/30 04:54:10;;;;;;;3.80;0.40;;;;;;;10.91;81.67;101181.99;113949;1200;24054;-79
2021/09/30 04:56:40;;;;;;;1.60;0.30;;;;;;;10.90;81.57;101187.86;113817;1200;22457;-80
2021/09/30 04:59:08;;;;;;;1.90;0.40;;;;;;;10.89;81.50;101192.30;114197;1200;22524;-78
2021/09/30 05:01:36;;;;;;;2.20;0.30;;;;;;;10.87;81.42;101194.34;113887;1200;25410;-79
2021/09/30 05:04:05;;;;;;;3.20;0.30;;;;;;;10.85;81.27;101197.61;113943;1200;22438;-80
2021/09/30 05:06:33;;;;;;;3.70;0.30;;;;;;;10.83;80.85;101205.05;114016;1200;22455;-79
2021/09/30 05:09:01;;;;;;;3.30;0.30;;;;;;;10.81;80.74;101208.86;114013;1200;25113;-79
2021/09/30 05:11:34;;;;;;;1.60;0.30;;;;;;;10.80;80.78;101211.35;114076;1200;22496;-79
2021/09/30 05:14:03;;;;;;;1.50;0.30;;;;;;;10.77;80.60;101209.10;115605;1200;22561;-79
2021/09/30 05:16:33;;;;;;;2.20;0.20;;;;;;;10.73;80.57;101205.54;114007;1200;23288;-79
2021/09/30 05:19:03;;;;;;;2.80;0.30;;;;;;;10.69;80.38;101206.93;113889;1200;25122;-79
2021/09/30 05:21:32;;;;;;;3.60;0.30;;;;;;;10.65;80.23;101214.98;113967;1200;22873;-80
2021/09/30 05:24:00;;;;;;;4.20;0.60;;;;;;;10.62;80.22;101219.26;114222;1192;25027;-80
2021/09/30 05:26:30;;;;;;;3.20;0.40;;;;;;;10.57;80.04;101218.09;114117;1200;22775;-80
2021/09/30 05:29:00;;;;;;;1.20;0.30;;;;;;;10.52;80.18;101221.23;114165;1200;24110;-78
2021/09/30 05:31:29;;;;;;;2.80;0.40;;;;;;;10.47;80.26;101228.96;113768;1200;22443;-78
2021/09/30 05:33:57;;;;;;;2.90;0.30;;;;;;;10.42;80.18;101228.92;113663;1200;25053;-78
2021/09/30 05:36:33;;;;;;;4.00;0.50;;;;;;;10.38;80.32;101220.38;113586;1195;24708;-78
2021/09/30 05:39:04;;;;;;;3.00;0.40;;;;;;;10.34;80.27;101223.73;113629;1200;22456;-78
2021/09/30 05:41:33;;;;;;;6.20;0.50;;;;;;;10.28;80.33;101230.38;113663;1200;22562;-78
2021/09/30 05:44:07;;;;;;;7.80;0.60;;;;;;;10.24;80.37;101238.80;113793;1200;25146;-77
2021/09/30 05:46:41;;;;;;;9.90;1.80;;;;;;;10.23;80.43;101238.80;113864;1200;22445;-77
2021/09/30 05:49:10;;;;;;;6.10;1.20;;;;;;;10.20;80.35;101243.83;113805;1200;25182;-77
2021/09/30 05:51:39;;;;;;;5.40;0.90;;;;;;;10.18;80.44;101247.90;113751;1200;25291;-78
2021/09/30 05:54:08;;;;;;;5.60;0.90;;;;;;;10.16;80.70;101247.25;113775;1192;22439;-77
2021/09/30 05:56:36;;;;;;;5.00;1.00;;;;;;;10.13;80.61;101250.37;113606;1200;22615;-77
2021/09/30 05:59:04;;;;;;;4.80;1.40;;;;;;;10.10;80.56;101253.96;113626;1200;22453;-80
2021/09/30 06:12:37;;;;;;;4.80;0.80;;;;;;;10.10;80.90;101260.12;113573;1201;22441;-78
2021/09/30 06:15:13;;;;;;;9.40;0.80;;;;;;;10.09;80.69;101258.31;113432;1201;25191;-79
2021/09/30 06:17:44;;;;;;;3.60;0.80;;;;;;;10.10;80.92;101263.45;113715;1201;22445;-79
2021/09/30 06:20:14;;;;;;;4.80;0.70;;;;;;;10.10;80.74;101271.48;113489;1201;23362;-79
2021/09/30 06:22:42;;;;;;;6.90;0.70;;;;;;;10.10;80.79;101271.27;113354;1201;25325;-79
2021/09/30 06:25:11;;;;;;;6.00;1.10;;;;;;;10.09;80.99;101273.58;113436;1201;24070;-78
2021/09/30 06:27:39;;;;;;;5.70;0.60;;;;;;;10.09;80.75;101271.30;113552;1195;25195;-79
2021/09/30 06:30:10;;;;;;;9.20;0.90;;;;;;;10.09;80.83;101273.44;113287;1201;22437;-78
2021/09/30 06:32:38;;;;;;;5.20;0.90;;;;;;;10.11;80.75;101275.80;113424;1201;22450;-78
2021/09/30 06:35:08;;;;;;;8.60;1.00;;;;;;;10.15;80.90;101279.35;113481;1201;27263;-78
2021/09/30 06:37:36;;;;;;;3.60;0.60;;;;;;;10.18;81.01;101280.80;113611;1201;22440;-78
2021/09/30 06:40:06;;;;;;;6.50;0.70;;;;;;;10.24;80.77;101278.45;113431;1201;22461;-78
2021/09/30 06:42:33;;;;;;;;;;;;;;;10.32;80.78;101275.61;113714;1200;22502;-78
2021/09/30 06:45:02;;;;;;;4.30;0.50;;;;;;;10.40;80.62;101279.73;113685;1200;22448;-79
2021/09/30 06:47:36;;;;;;;3.80;0.40;;;;;;;10.49;80.35;101288.57;113750;1186;24057;-79
2021/09/30 06:50:07;;;;;;;6.00;0.60;;;;;;;10.60;80.01;101284.90;113682;1200;22502;-78
2021/09/30 06:52:35;;;;;;;3.30;0.30;;;;;;;10.71;80.14;101290.66;113539;1201;24068;-79
2021/09/30 06:55:05;;;;;;;4.30;0.30;;;;;;;10.81;79.33;101290.84;113552;1200;26228;-79
2021/09/30 06:57:33;;;;;;;4.10;0.50;;;;;;;10.88;78.79;101289.94;113421;1201;22424;-80
2021/09/30 07:00:05;;;;;;;2.60;0.40;;;;;;;10.92;78.24;101293.46;113484;1201;22565;-79
2021/09/30 07:02:36;;;;;;;6.00;0.40;;;;;;;10.96;78.11;101297.79;113645;1193;22540;-79
2021/09/30 07:05:03;;;;;;;;;;;;;;;10.99;77.67;101303.73;113608;1201;24458;-79
2021/09/30 07:07:33;;;;;;;1.80;0.40;;;;;;;11.00;77.15;101308.45;113584;1200;24092;-78
2021/09/30 07:10:02;;;;;;;4.40;0.30;;;;;;;11.03;77.23;101311.06;113549;1186;24272;-78
2021/09/30 07:12:30;;;;;;;6.20;0.90;;;;;;;11.08;77.54;101311.84;113575;1200;22441;-78
2021/09/30 07:14:58;;;;;;;5.20;0.50;;;;;;;11.15;77.57;101313.58;113547;1200;25334;-79
2021/09/30 07:17:28;;;;;;;3.40;0.90;;;;;;;11.20;77.30;101319.69;113492;1185;25439;-78
2021/09/30 07:19:57;;;;;;;5.90;0.50;;;;;;;11.25;76.81;101320.38;113614;1186;23373;-76
2021/09/30 07:22:26;;;;;;;2.90;0.40;;;;;;;11.29;76.33;101318.79;113552;1200;22368;-77
2021/09/30 07:24:54;;;;;;;1.10;0.20;;;;;;;11.33;76.20;101318.86;113520;1200;24195;-78
2021/09/30 07:27:23;;;;;;;2.60;0.40;;;;;;;11.37;76.14;101329.40;113529;1200;22483;-77
2021/09/30 07:29:51;;;;;;;3.60;0.40;;;;;;;11.42;76.11;101325.06;113574;1194;22432;-77
2021/09/30 07:32:20;;;;;;;2.00;0.40;;;;;;;11.47;75.63;101327.29;113416;1200;22450;-77
2021/09/30 07:34:48;;;;;;;1.50;0.30;;;;;;;11.50;75.16;101330.00;113560;1200;22420;-77
2021/09/30 07:37:16;;;;;;;3.60;0.50;;;;;;;11.56;74.94;101337.85;113536;1200;22442;-78
2021/09/30 07:39:44;;;;;;;3.20;0.50;;;;;;;11.60;74.47;101339.92;113510;1200;22461;-78
2021/09/30 07:42:14;;;;;;;3.60;0.50;;;;;;;11.64;74.59;101340.34;113486;1193;22445;-77
2021/09/30 07:44:42;;;;;;;2.20;0.20;;;;;;;11.66;74.69;101341.70;113646;1200;25076;-78
2021/09/30 07:47:10;;;;;;;4.60;0.60;;;;;;;11.71;74.61;101340.00;113716;1200;25235;-77
2021/09/30 07:49:38;;;;;;;4.00;0.30;;;;;;;11.77;74.83;101342.08;113643;1200;24057;-78
2021/09/30 07:52:07;;;;;;;2.10;0.30;;;;;;;11.82;74.14;101345.45;113550;1200;24058;-77
2021/09/30 07:54:35;;;;;;;3.50;0.30;;;;;;;11.87;74.09;101343.27;113529;1200;24172;-77
2021/09/30 07:57:03;;;;;;;3.60;0.40;;;;;;;11.92;74.15;101344.73;113725;1200;22489;-78
2021/09/30 07:59:31;;;;;;;5.60;0.30;;;;;;;11.98;73.63;101357.85;113773;1200;22553;-77
2021/09/30 08:02:00;;;;;;;3.10;0.30;;;;;;;12.02;72.83;101362.31;113739;1199;22506;-76
2021/09/30 08:04:28;;;;;;;4.00;0.20;;;;;;;12.07;72.78;101362.01;113629;1200;25015;-77
2021/09/30 08:06:56;;;;;;;3.60;0.30;;;;;;;12.13;73.09;101357.70;113588;1200;25256;-78
2021/09/30 08:09:24;;;;;;;2.10;0.30;;;;;;;12.20;72.65;101352.27;113740;1200;22421;-78
2021/09/30 08:11:52;;;;;;;3.00;0.30;;;;;;;12.25;72.08;101358.64;113670;1200;24585;-77
2021/09/30 08:14:20;;;;;;;75.60;41.80;;;;;;;12.31;72.38;101357.77;113771;1193;24075;-75
2021/09/30 08:16:49;;;;;;;15.30;4.90;;;;;;;12.37;72.29;101360.86;113540;1200;24604;-77
2021/09/30 08:19:18;;;;;;;9.30;1.30;;;;;;;12.43;71.99;101359.22;113369;1196;22493;-77
2021/09/30 08:21:46;;;;;;;6.60;0.70;;;;;;;12.48;71.36;101363.60;113463;1200;22420;-76
2021/09/30 08:24:16;;;;;;;5.40;0.60;;;;;;;12.50;71.06;101370.77;113443;1200;25029;-76
2021/09/30 08:26:45;;;;;;;5.20;0.40;;;;;;;12.53;71.08;101372.12;113779;1200;22440;-76
2021/09/30 08:29:16;;;;;;;1.20;0.30;;;;;;;12.57;71.02;101372.40;113476;1199;22419;-76
2021/09/30 08:31:43;;;;;;;;;;;;;;;12.61;70.69;101371.50;113727;1199;25094;-76
2021/09/30 08:34:12;;;;;;;2.90;0.40;;;;;;;12.64;70.07;101370.87;113475;1200;22480;-76
2021/09/30 08:36:40;;;;;;;3.10;0.20;;;;;;;12.65;69.94;101368.11;113407;1185;25315;-77
2021/09/30 08:39:09;;;;;;;3.60;0.60;;;;;;;12.67;70.29;101364.35;113518;1200;25122;-77
2021/09/30 08:41:38;;;;;;;6.50;0.50;;;;;;;12.73;69.82;101371.16;113533;1200;22996;-76
2021/09/30 08:44:06;;;;;;;1.90;0.20;;;;;;;12.79;69.36;101368.20;113607;1200;24299;-76
2021/09/30 08:46:35;;;;;;;3.90;0.30;;;;;;;12.82;69.06;101372.80;113634;1200;24213;-77
2021/09/30 08:49:05;;;;;;;2.70;0.20;;;;;;;12.86;68.87;101371.54;113508;1193;25183;-76
2021/09/30 08:51:35;;;;;;;2.40;0.20;;;;;;;12.90;69.00;101373.81;113391;1200;22429;-76
2021/09/30 08:54:05;;;;;;;0.80;0.40;;;;;;;12.97;68.73;101374.39;113477;1200;22464;-76
2021/09/30 08:56:35;;;;;;;1.80;0.20;;;;;;;13.04;68.41;101375.46;113689;1198;24072;-77
2021/09/30 08:59:20;;;;;;;3.90;0.40;;;;;;;13.07;68.10;101371.52;113691;1198;24091;-79
2021/09/30 09:02:06;;;;;;;1.90;0.30;;;;;;;13.09;67.78;101373.26;114100;1198;25046;-77
2021/09/30 09:04:34;;;;;;;2.50;0.20;;;;;;;13.11;67.53;101371.54;113573;1198;22435;-77
2021/09/30 09:07:07;;;;;;;1.80;0.30;;;;;;;13.14;67.38;101370.70;113519;1200;22566;-78
2021/09/30 09:09:36;;;;;;;3.40;0.30;;;;;;;13.17;66.77;101371.09;113510;1200;22428;-77
2021/09/30 09:12:08;;;;;;;2.20;0.20;;;;;;;13.20;66.69;101368.09;113590;1200;22430;-78
2021/09/30 09:14:39;;;;;;;1.50;0.10;;;;;;;13.21;66.57;101362.37;113731;1200;22462;-78
2021/09/30 09:17:11;;;;;;;3.00;0.40;;;;;;;13.24;67.19;101362.23;113664;1198;22434;-77
2021/09/30 09:19:43;;;;;;;4.40;0.20;;;;;;;13.29;66.58;101363.02;113708;1200;24416;-77
2021/09/30 09:22:14;;;;;;;4.30;0.50;;;;;;;13.33;66.23;101364.74;113956;1197;25075;-78
2021/09/30 09:25:10;;;;;;;3.00;0.30;;;;;;;13.39;66.26;101362.80;114010;1199;22511;-78
2021/09/30 09:28:01;;;;;;;4.90;0.10;;;;;;;13.44;65.51;101369.79;113434;1200;25084;-78
2021/09/30 09:30:36;;;;;;;1.40;0.10;;;;;;;13.46;66.22;101366.08;113686;1203;22452;-78
2021/09/30 09:33:14;;;;;;;7.10;0.30;;;;;;;13.53;66.03;101370.08;113408;1203;22521;-77
2021/09/30 09:36:02;;;;;;;2.30;0.30;;;;;;;13.59;65.39;101368.42;113488;1203;22485;-78
2021/09/30 09:38:45;;;;;;;1.60;0.20;;;;;;;13.60;65.10;101369.02;113450;1203;23724;-78
2021/09/30 09:41:23;;;;;;;3.80;0.40;;;;;;;13.63;65.21;101374.73;113514;1203;22877;-78
2021/09/30 09:43:55;;;;;;;2.00;0.20;;;;;;;13.64;64.82;101376.35;113501;1203;22815;-78
2021/09/30 09:46:28;;;;;;;7.30;0.30;;;;;;;13.69;64.48;101376.10;113354;1203;22626;-77
2021/09/30 09:49:01;;;;;;;2.80;0.20;;;;;;;13.73;64.29;101379.66;113294;1203;23221;-79
2021/09/30 09:51:36;;;;;;;5.00;0.60;;;;;;;13.75;64.22;101382.78;113767;1203;22610;-78
2021/09/30 09:54:10;;;;;;;2.20;0.20;;;;;;;13.79;63.89;101377.09;113681;1203;25150;-78
2021/09/30 09:56:41;;;;;;;4.00;0.40;;;;;;;13.82;63.83;101379.52;113240;1203;22420;-78
2021/09/30 09:59:11;;;;;;;2.20;0.20;;;;;;;13.82;62.88;101381.27;113118;1203;24894;-79
2021/09/30 10:01:42;;;;;;;4.40;0.20;;;;;;;13.85;63.71;101374.16;113154;1203;22406;-78
2021/09/30 10:04:13;;;;;;;2.50;0.20;;;;;;;13.90;63.30;101372.30;113143;1200;22569;-78
2021/09/30 10:06:44;;;;;;;3.70;0.20;;;;;;;13.95;62.81;101379.05;113893;1199;22515;-78
2021/09/30 10:09:14;;;;;;;4.00;0.30;;;;;;;13.95;61.96;101387.22;113585;1200;22409;-77
2021/09/30 10:11:43;;;;;;;4.80;0.30;;;;;;;13.91;62.19;101384.86;113698;1200;22449;-78
2021/09/30 10:14:12;;;;;;;1.80;0.20;;;;;;;13.87;61.99;101383.77;113585;1200;25159;-78
2021/09/30 10:16:42;;;;;;;6.80;0.70;;;;;;;13.85;62.02;101382.02;113731;1193;22489;-78
2021/09/30 10:19:10;;;;;;;6.10;0.40;;;;;;;13.83;61.68;101378.67;113564;1200;22460;-78
2021/09/30 10:21:39;;;;;;;6.90;0.40;;;;;;;13.82;61.49;101378.71;113531;1200;23407;-78
2021/09/30 10:24:14;;;;;;;3.30;0.40;;;;;;;13.80;61.26;101383.55;113589;1200;22674;-79
2021/09/30 10:26:52;;;;;;;7.60;0.80;;;;;;;13.81;61.20;101384.14;113631;1200;24073;-79
2021/09/30 10:29:37;;;;;;;3.00;0.40;;;;;;;13.85;60.75;101389.57;113734;1200;22524;-79
2021/09/30 10:32:08;;;;;;;5.50;0.40;;;;;;;13.83;60.77;101382.19;113685;1200;24943;-78
2021/09/30 10:34:41;;;;;;;2.10;0.10;;;;;;;13.80;60.76;101386.41;113534;1200;22431;-78
2021/09/30 10:37:22;;;;;;;4.10;0.30;;;;;;;13.78;60.70;101388.66;113769;1200;22424;-78
2021/09/30 10:40:16;;;;;;;5.60;0.20;;;;;;;13.81;60.37;101388.78;113791;1200;22444;-79
2021/09/30 10:42:53;;;;;;;8.50;0.40;;;;;;;13.79;60.44;101389.31;113484;1200;22717;-78
2021/09/30 10:45:24;;;;;;;2.00;0.20;;;;;;;13.83;60.64;101390.52;113741;1193;22566;-77
2021/09/30 10:47:55;;;;;;;3.50;0.30;;;;;;;13.89;60.10;101386.48;113661;1200;22424;-78
2021/09/30 10:50:45;;;;;;;6.80;0.30;;;;;;;13.96;59.52;101389.44;113647;1200;22449;-78
2021/09/30 10:53:14;;;;;;;2.50;0.20;;;;;;;14.04;58.95;101387.83;113782;1200;22460;-77
2021/09/30 10:55:44;;;;;;;5.50;0.40;;;;;;;14.10;58.94;101383.18;113766;1200;25103;-77
2021/09/30 10:58:23;;;;;;;7.50;0.50;;;;;;;14.17;58.62;101385.48;113599;1200;24603;-79
2021/09/30 11:01:00;;;;;;;6.20;0.50;;;;;;;14.25;58.47;101388.40;113809;1200;22448;-79
2021/09/30 11:03:29;;;;;;;3.80;0.20;;;;;;;14.29;58.37;101382.09;113804;1200;24958;-79
2021/09/30 11:06:26;;;;;;;3.80;0.10;;;;;;;14.36;58.03;101384.20;113666;1200;22613;-80
2021/09/30 11:09:17;;;;;;;5.60;0.30;;;;;;;14.41;57.78;101380.73;113715;1200;22439;-79
2021/09/30 11:11:49;;;;;;;2.60;0.20;;;;;;;14.44;58.05;101379.17;113976;1199;22424;-80
2021/09/30 11:14:23;;;;;;;7.70;0.30;;;;;;;14.48;57.47;101377.20;113789;1200;22440;-79
2021/09/30 11:16:54;;;;;;;2.60;0.30;;;;;;;14.54;58.14;101374.95;113694;1200;23028;-78
2021/09/30 11:19:33;;;;;;;3.10;0.20;;;;;;;14.62;57.17;101377.95;113750;1200;26403;-79
2021/09/30 11:22:05;;;;;;;1.90;0.20;;;;;;;14.65;57.14;101375.68;113892;1193;22418;-79
2021/09/30 11:24:49;;;;;;;1.90;0.10;;;;;;;14.68;56.60;101381.96;114353;1185;22580;-80
2021/09/30 11:27:28;;;;;;;6.80;0.40;;;;;;;14.71;56.36;101379.38;114406;1200;25135;-81
2021/09/30 11:30:21;;;;;;;1.70;0.10;;;;;;;14.75;56.98;101383.66;114229;1200;22462;-79
2021/09/30 11:32:49;;;;;;;3.20;0.30;;;;;;;14.80;56.01;101383.59;114309;1193;22496;-79
2021/09/30 11:35:19;;;;;;;7.60;0.30;;;;;;;14.78;55.73;101378.39;113678;1194;22559;-78
2021/09/30 11:37:47;;;;;;;4.70;0.10;;;;;;;14.77;56.01;101375.00;113647;1197;22556;-79
2021/09/30 11:40:19;;;;;;;4.60;0.20;;;;;;;14.77;55.73;101375.05;113623;1200;22442;-80
2021/09/30 11:42:54;;;;;;;2.20;0.30;;;;;;;14.78;55.24;101373.08;113519;1200;22579;-79
2021/09/30 11:45:26;;;;;;;3.30;0.20;;;;;;;14.81;54.79;101372.88;113598;1200;25218;-79
2021/09/30 11:48:08;;;;;;;36.10;16.90;;;;;;;14.83;54.38;101378.75;113975;1200;22672;-78
2021/09/30 11:50:37;;;;;;;7.90;1.40;;;;;;;14.87;53.29;101382.50;113806;1200;23273;-79
2021/09/30 11:53:09;;;;;;;2.90;0.40;;;;;;;14.87;53.09;101380.50;113947;1200;22447;-79
2021/09/30 11:55:41;;;;;;;4.00;0.20;;;;;;;14.88;53.62;101377.71;114046;1199;26277;-79
2021/09/30 11:58:15;;;;;;;5.00;0.30;;;;;;;14.91;53.87;101381.30;114142;1200;25085;-79
2021/09/30 12:00:47;;;;;;;2.40;0.20;;;;;;;14.93;53.35;101383.23;114165;1200;22473;-80
2021/09/30 12:03:15;;;;;;;6.80;0.30;;;;;;;14.91;52.84;101378.28;114024;1200;22441;-79
2021/09/30 12:05:44;;;;;;;2.30;0.20;;;;;;;14.91;52.56;101376.24;114135;1198;23385;-79
2021/09/30 12:08:14;;;;;;;2.00;0.20;;;;;;;14.93;52.93;101375.89;113959;1200;25023;-80
2021/09/30 12:10:44;;;;;;;3.30;0.20;;;;;;;14.97;52.49;101370.23;113870;1198;22428;-79
2021/09/30 12:13:20;;;;;;;2.10;0.10;;;;;;;15.01;52.79;101374.54;113785;1193;25125;-79
2021/09/30 12:15:50;;;;;;;4.10;0.20;;;;;;;15.04;52.70;101383.51;113541;1200;22482;-79
2021/09/30 12:18:22;;;;;;;4.50;0.20;;;;;;;15.07;52.60;101381.26;113679;1200;22508;-79
2021/09/30 12:20:53;;;;;;;5.90;0.30;;;;;;;15.05;52.58;101375.24;113812;1200;22430;-79
2021/09/30 12:23:22;;;;;;;2.60;0.10;;;;;;;15.09;52.55;101378.95;113841;1200;22453;-79
2021/09/30 12:25:51;;;;;;;3.00;0.20;;;;;;;15.13;51.93;101378.45;113559;1200;22446;-79
2021/09/30 12:28:21;;;;;;;3.30;0.20;;;;;;;15.14;52.46;101373.81;113638;1200;22430;-80
2021/09/30 12:30:52;;;;;;;1.60;0.20;;;;;;;15.17;52.03;101378.64;113698;1200;24989;-79
2021/09/30 12:33:30;;;;;;;1.30;0.20;;;;;;;15.20;51.98;101372.38;113796;1200;23134;-79
2021/09/30 12:36:06;;;;;;;3.70;0.20;;;;;;;15.23;51.79;101375.23;113812;1200;22433;-79
2021/09/30 12:38:35;;;;;;;2.30;0.10;;;;;;;15.28;51.55;101380.83;113856;1199;25210;-79
2021/09/30 12:41:06;;;;;;;0.90;0.10;;;;;;;15.28;51.69;101375.08;113706;1200;22583;-79
2021/09/30 12:43:38;;;;;;;3.30;0.20;;;;;;;15.29;51.67;101372.73;113799;1200;24078;-79
2021/09/30 12:46:10;;;;;;;1.70;0.20;;;;;;;15.34;51.24;101373.94;113839;1200;22444;-79
2021/09/30 12:48:40;;;;;;;2.10;0.10;;;;;;;15.37;50.90;101373.89;113925;1200;22443;-79
2021/09/30 12:51:10;;;;;;;3.00;0.10;;;;;;;15.41;50.76;101371.45;113797;1196;24133;-79
2021/09/30 12:53:44;;;;;;;5.50;0.20;;;;;;;15.43;50.61;101366.39;113840;1200;22461;-79
2021/09/30 12:56:15;;;;;;;4.90;0.30;;;;;;;15.43;50.98;101365.92;114004;1200;22430;-78
2021/09/30 12:58:47;;;;;;;3.40;0.20;;;;;;;15.44;50.96;101363.69;113851;1200;22463;-79
2021/09/30 13:01:25;;;;;;;1.70;0.20;;;;;;;15.48;50.44;101367.64;114068;1200;22531;-80
2021/09/30 13:04:12;;;;;;;4.40;0.30;;;;;;;15.50;50.16;101366.83;114105;1200;24647;-81
2021/09/30 13:06:54;;;;;;;3.20;0.20;;;;;;;15.53;50.20;101369.57;114364;1194;22492;-80
2021/09/30 13:09:25;;;;;;;3.10;0.20;;;;;;;15.54;50.50;101368.05;114304;1200;24055;-80
2021/09/30 13:11:55;;;;;;;4.70;0.10;;;;;;;15.55;50.42;101366.48;114241;1200;22561;-81
2021/09/30 13:14:28;;;;;;;4.80;0.20;;;;;;;15.55;50.03;101367.91;114863;1196;22470;-81
2021/09/30 13:17:12;;;;;;;3.00;0.20;;;;;;;15.54;50.59;101364.06;114746;1200;22456;-80
2021/09/30 13:19:49;;;;;;;2.90;0.20;;;;;;;15.56;50.42;101364.96;117038;1200;23025;-81
2021/09/30 13:22:21;;;;;;;1.00;0.10;;;;;;;15.54;50.38;101360.54;116758;1200;26428;-81
2021/09/30 13:24:50;;;;;;;5.10;0.30;;;;;;;15.50;49.93;101364.70;114526;1200;22622;-80
2021/09/30 13:27:22;;;;;;;2.10;0.10;;;;;;;15.42;50.14;101364.91;114396;1197;25083;-83
2021/09/30 13:29:51;;;;;;;4.50;0.20;;;;;;;15.32;50.29;101364.70;113995;1200;22524;-81
2021/09/30 13:32:24;;;;;;;3.40;0.20;;;;;;;15.24;50.23;101365.36;114553;1200;22443;-80
2021/09/30 13:34:55;;;;;;;5.90;0.40;;;;;;;15.17;50.41;101367.89;114674;1200;22521;-80
2021/09/30 13:37:25;;;;;;;1.80;0.20;;;;;;;15.11;50.40;101363.79;114862;1200;22533;-80
2021/09/30 13:39:56;;;;;;;3.70;0.20;;;;;;;15.06;50.76;101363.55;115252;1200;23733;-81
2021/09/30 13:42:27;;;;;;;2.50;0.20;;;;;;;15.01;50.88;101364.15;115388;1200;22448;-80
2021/09/30 13:44:57;;;;;;;2.90;0.20;;;;;;;14.97;50.66;101369.27;115116;1200;24100;-80
2021/09/30 13:47:28;;;;;;;9.40;0.50;;;;;;;14.99;50.32;101366.73;115730;1200;27283;-81
2021/09/30 13:49:57;;;;;;;3.40;0.30;;;;;;;15.03;50.19;101367.33;114411;1200;23163;-81
2021/09/30 13:52:30;;;;;;;3.80;0.30;;;;;;;15.06;50.40;101361.61;114470;1200;22426;-81
2021/09/30 13:54:59;;;;;;;5.30;0.30;;;;;;;15.10;49.86;101362.85;114229;1200;22483;-80
2021/09/30 13:57:29;;;;;;;5.10;0.50;;;;;;;15.15;50.20;101364.65;114384;1200;22445;-80
2021/09/30 13:59:57;;;;;;;2.00;0.20;;;;;;;15.20;50.35;101358.54;113809;1200;22618;-80
2021/09/30 14:02:25;;;;;;;3.00;0.30;;;;;;;15.23;50.53;101360.34;114046;1193;24561;-80
2021/09/30 14:04:54;;;;;;;1.60;0.20;;;;;;;15.29;50.02;101360.70;114074;1200;24095;-79